• Join FlightAware (Why Join?)
  • Login
  • US Flag 
Rudolph Flight #1: Scheduled 
08:21PM EST


 

Airport Tracker/Info


-or-


 

Live Flight TrackerFlight Track Log ✈ EJA727 ✈ 08-Jul-2014 ✈ KSUN - KBFI

Flight Track Log - Related Links

Times and Time Zones

All times are in EDT time to prevent confusion due to time zone crossing. See the EJA727 flight status page for this flight to view local times or setup timezone preferences in your user account.

Time Position Orientation Groundspeed Altitude Reporting Facility
EDT Latitude Longitude Course Direction KTS MPH feet Rate Location/Type
05:37PM 43.8881 -114.9700 308° West  Level Estimated
05:37PM 43.3600 -114.2775 319° Northwest 300 345 12,700  Level Salt Lake Center
05:38PM 43.9518 -115.0833 308° West  Level Estimated
05:38PM 43.2981 -114.3486 220° Southwest 296 341 16,200  Level Salt Lake Center
05:39PM 44.0154 -115.1968 308° West  Level Estimated
05:40PM 44.0788 -115.3105 324° Northwest  Level Estimated
05:40PM 43.2889 -114.4783 264° West 337 388 17,700  Level Salt Lake Center
05:41PM 44.1421 -115.4245 322° Northwest  Level Estimated
05:41PM 43.3525 -114.5928 307° West 365 420 20,400  Level Salt Lake Center
05:42PM 44.2198 -115.5198 319° Northwest  Level FlightAware Approximate
05:42PM 43.4244 -114.7147 309° West 386 444 23,000  Level Salt Lake Center
05:43PM 44.2975 -115.6153 319° Northwest  Level FlightAware Approximate
05:43PM 43.4931 -114.8342 308° West 397 457 25,500  Level Salt Lake Center
05:44PM 43.5644 -114.9567 309° West 405 466 28,000 1,860 Climbing Salt Lake Center
05:45PM 43.6367 -115.0814 309° West 417 480 29,400 1,380 Climbing Salt Lake Center
05:46PM 43.7119 -115.2136 308° West 433 498 30,900 1,380 Climbing Salt Lake Center
05:47PM 43.7875 -115.3456 308° West 436 502 32,300 1,260 Climbing Salt Lake Center
05:48PM 43.8792 -115.5089 308° West 445 512 33,600 1,140 Climbing Salt Lake Center
05:49PM 43.9561 -115.6453 308° West 449 517 34,700 1,020 Climbing Salt Lake Center
05:50PM 44.0336 -115.7828 308° West 451 519 35,800 600 Climbing Salt Lake Center
05:51PM 44.1094 -115.9197 308° West 449 517 36,000 60 Climbing Salt Lake Center
05:52PM 44.1839 -116.0544 308° West 443 510 36,000  Level Salt Lake Center
05:53PM 44.2558 -116.1878 307° West 430 495 36,000  Level Salt Lake Center
05:54PM 44.3278 -116.3231 307° West 429 494 36,000  Level Salt Lake Center
05:55PM 44.4008 -116.4567 307° West 428 493 36,000  Level Salt Lake Center
05:56PM 44.4872 -116.6125 308° West 425 489 36,000  Level Salt Lake Center
05:57PM 44.5575 -116.7439 307° West 423 487 36,000  Level Salt Lake Center
05:58PM 44.6283 -116.8739 307° West 422 486 36,000  Level Salt Lake Center
05:59PM 44.6983 -117.0058 307° West 422 486 36,000  Level Salt Lake Center
06:00PM 44.7689 -117.1367 307° West 421 484 36,000  Level Salt Lake Center
06:01PM 44.8394 -117.2683 307° West 421 484 36,000  Level Salt Lake Center
06:02PM 44.9222 -117.4267 306° West 421 484 36,000  Level Salt Lake Center
06:03PM 44.9922 -117.5583 307° West 421 484 36,000  Level Salt Lake Center
06:04PM 45.0603 -117.6900 306° West 420 483 36,000  Level Salt Lake Center
06:05PM 45.1300 -117.8222 307° West 420 483 36,000  Level Salt Lake Center
06:06PM 45.2033 -117.9631 306° West 419 482 36,000  Level Salt Lake Center
06:07PM 45.2711 -118.0944 306° West 418 481 36,000  Level Salt Lake Center
06:08PM 45.3392 -118.2269 306° West 417 480 36,000  Level Salt Lake Center
06:10PM 45.4058 -118.3586 306° West 417 480 36,000  Level Salt Lake Center
06:11PM 45.4878 -118.5200 306° West 420 483 36,000  Level Salt Lake Center
06:12PM 45.5553 -118.6533 306° West 419 482 36,000  Level Salt Lake Center
06:13PM 45.6231 -118.7872 306° West 419 482 36,000  Level Salt Lake Center
06:14PM 45.6911 -118.9219 306° West 419 482 36,000  Level Salt Lake Center
06:15PM 45.7647 -119.0525 309° West 420 483 36,000  Level Salt Lake Center
06:16PM 45.8558 -119.2036 311° West 423 487 36,000  Level Seattle Center
06:17PM 45.9464 -119.3603 310° West 423 487 36,000  Level Seattle Center
06:18PM 46.0217 -119.4889 310° West 424 488 36,000  Level Seattle Center
06:19PM 46.0981 -119.6183 310° West 424 488 36,000 -60 Level Seattle Center
06:20PM 46.1725 -119.7475 310° West 424 488 35,900 -1,020 Descending Seattle Center
06:21PM 46.2483 -119.8800 310° West 426 490 34,000 -1,860 Descending Seattle Center
06:22PM 46.3269 -120.0175 310° West 441 507 32,100 -1,920 Descending Seattle Center
06:23PM 46.4044 -120.1542 309° West 444 511 30,200 -1,920 Descending Seattle Center
06:24PM 46.4825 -120.2903 310° West 443 510 28,300 -2,040 Descending Seattle Center
06:25PM 46.5736 -120.4522 309° West 435 501 26,100 -1,860 Descending Seattle Center
06:26PM 46.6389 -120.5911 304° West 420 483 24,500 -1,860 Descending Seattle Center
06:27PM 46.7044 -120.7267 305° West 415 478 22,400 -2,100 Descending Seattle Center
06:28PM 46.7678 -120.8636 304° West 410 472 20,300 -2,100 Descending Seattle Center
06:29PM 46.8308 -120.9975 305° West 405 466 18,200 -2,220 Descending Seattle Center
06:30PM 46.9000 -121.1411 305° West 373 429 15,800 -2,220 Descending Seattle Center
06:31PM 46.9564 -121.2606 305° West 359 413 13,700 -2,100 Descending Seattle Center
06:31PM 46.9650 -121.2819 301° West 336 387 13,300 -2,100 Descending Seattle Center
06:32PM 47.0078 -121.3714 305° West 329 379 11,600 -1,740 Descending Seattle Center
06:33PM 47.0289 -121.4219 302° West 312 359 11,000 -600 Descending Seattle Center
06:33PM 47.0547 -121.4764 305° West 304 350 11,000  Level Seattle Center
06:34PM 47.0733 -121.5144 306° West 292 336 11,000 -1,440 Level Seattle Center
06:35PM 47.1231 -121.6269 303° West 302 348 8,900 -2,040 Descending Seattle Center
06:35PM 47.1481 -121.6772 306° West 297 342 7,700 -2,400 Descending Seattle Center
06:36PM 47.1722 -121.7300 304° West 290 334 6,500 -1,680 Descending Seattle Center
06:36PM 47.1950 -121.7786 305° West 282 325 6,000 -540 Descending Seattle Center
06:37PM 47.2139 -121.8211 303° West 266 306 6,000  Level Seattle Center
06:37PM 47.2356 -121.8706 303° West 271 312 6,000  Level Seattle Center
06:38PM 47.2542 -121.9164 301° West 270 311 6,000 -240 Level Seattle Center
06:38PM 47.2758 -121.9658 303° West 274 315 5,800 -900 Descending Seattle Center
06:39PM 47.2903 -122.0042 299° West 274 315 5,200 -1,620 Descending Seattle Center
06:39PM 47.3136 -122.0592 302° West 267 307 4,200 -1,080 Descending Seattle Center
06:40PM 47.3311 -122.1028 301° West 261 300 4,000 -420 Descending Seattle Center
06:40PM 47.3569 -122.1508 308° West 256 295 3,800 -720 Descending Seattle Center
06:41PM 47.3792 -122.1775 321° Northwest 237 273 3,300 -1,200 Descending Seattle Center
06:41PM 47.4064 -122.1994 331° Northwest 212 244 2,600 -1,140 Descending Seattle Center
06:42PM 47.4269 -122.2167 330° Northwest 176 203 2,200 -900 Descending Seattle Center
06:42PM 47.4486 -122.2339 332° Northwest 180 207 1,700 -900 Descending Seattle Center
06:43PM 47.4647 -122.2514 324° Northwest 153 176 1,300 -900 Descending Seattle Center
06:43PM 47.4872 -122.2675 334° Northwest 154 177 800 -840 Descending Seattle Center
06:44PM 47.5003 -122.2778 332° Northwest 140 161 500 -720 Descending Seattle Center
06:44PM 47.5175 -122.2914 332° Northwest 141 162 100 -720 Descending Seattle Center
06:47PM 47.5167 -122.3000 326° Northwest  Level FlightAware Approximate